createdAt,value
2023-04-15T00:06:41.963Z,2.40
2023-04-15T00:36:44.946Z,2.53
2023-04-15T01:06:47.858Z,1.63
2023-04-15T01:36:50.786Z,1.83
2023-04-15T02:06:53.881Z,2.38
2023-04-15T02:36:56.765Z,2.40
2023-04-15T03:06:59.682Z,2.63
2023-04-15T03:37:02.653Z,2.72
2023-04-15T04:07:05.594Z,3.00
2023-04-15T04:37:08.535Z,3.10
2023-04-15T05:07:11.669Z,3.17
2023-04-15T05:37:14.661Z,4.30
2023-04-15T06:07:17.577Z,3.97
2023-04-15T06:37:20.850Z,6.07
2023-04-15T07:07:24.046Z,2.30
2023-04-15T07:37:27.014Z,2.70
2023-04-15T08:07:30.045Z,4.43
2023-04-15T08:37:32.991Z,2.80
2023-04-15T09:07:35.976Z,1.27
2023-04-15T09:37:38.934Z,1.40
2023-04-15T10:07:42.134Z,1.25
2023-04-15T10:37:45.193Z,1.20
2023-04-15T11:07:53.891Z,0.75
2023-04-15T11:37:56.887Z,1.00
2023-04-15T12:08:00.350Z,1.00
2023-04-15T12:38:03.347Z,3.35
2023-04-15T13:08:06.591Z,4.75
2023-04-15T13:38:09.659Z,6.82
2023-04-15T14:08:14.144Z,13.02
2023-04-15T14:38:17.148Z,6.53
2023-04-15T15:08:20.101Z,4.30
2023-04-15T15:38:23.052Z,4.78
2023-04-15T16:08:25.919Z,4.85
2023-04-15T16:38:28.847Z,5.07
2023-04-15T17:08:31.816Z,7.25
2023-04-15T17:38:35.244Z,6.70
2023-04-15T18:08:38.237Z,8.13
2023-04-15T18:38:41.423Z,5.38
2023-04-15T19:08:44.477Z,5.28
2023-04-15T19:38:47.470Z,7.00
2023-04-15T20:08:50.698Z,6.00
2023-04-15T20:38:54.107Z,9.93
2023-04-15T21:08:57.096Z,7.53
2023-04-15T21:39:00.043Z,10.15
2023-04-15T22:09:03.597Z,8.20
2023-04-15T22:39:06.874Z,9.77
2023-04-15T23:09:10.252Z,7.93
2023-04-15T23:39:13.229Z,8.05
